Flight Track Log - Related Links

Times and Time Zones

All times are in EDT time to prevent confusion due to time zone crossing. See the ACA201 flight status page for this flight to view local times or setup timezone preferences in your user account.

Time Position Orientation Groundspeed Altitude Reporting Facility
EDT Latitude Longitude Course Direction KTS MPH feet Rate Location/Type
Sat 08:12:11 AM 51.0833 -114.0333 348° North 110 127 3,700  Level Edmonton Center
Sat 08:13:11 AM 51.1333 -114.0500 360° North 180 207 6,100 2,650 Climbing Edmonton Center
Sat 08:14:11 AM 51.1833 -114.0500 270° West 200 230 9,000 3,000 Climbing Edmonton Center
Sat 08:15:11 AM 51.1833 -114.1667 242° Southwest 250 288 12,100 2,600 Climbing Edmonton Center
Sat 08:16:11 AM 51.1500 -114.2667 260° West 290 334 14,200 2,500 Climbing Edmonton Center
Sat 08:17:11 AM 51.1333 -114.4167 252° West 330 380 17,100 3,200 Climbing Edmonton Center
Sat 08:18:11 AM 51.1000 -114.5833 270° West 350 403 20,600 3,050 Climbing Edmonton Center
Sat 08:19:11 AM 51.1000 -114.7167 254° West 350 403 23,200 2,500 Climbing Edmonton Center
Sat 08:20:11 AM 51.0667 -114.9000 260° West 360 414 25,600 2,450 Climbing Edmonton Center
Sat 08:21:11 AM 51.0500 -115.0500 251° West 370 426 28,100 2,500 Climbing Edmonton Center
Sat 08:22:11 AM 51.0167 -115.2000 252° West 370 426 30,600 2,200 Climbing Edmonton Center
Sat 08:23:11 AM 50.9833 -115.3667 248° West 360 414 32,500 1,966 Climbing Edmonton Center
Sat 08:24:10 AM 50.9667 -115.4333 261° West 360 414 34,500 1,866 Climbing Vancouver Center
Sat 08:25:10 AM 50.9500 -115.6000 259° West 350 403 36,200 1,350 Climbing Vancouver Center
Sat 08:26:10 AM 50.9333 -115.7333 245° Southwest 350 403 37,200 900 Climbing Vancouver Center
Sat 08:27:10 AM 50.8833 -115.9000 261° West 360 414 38,000 400 Climbing Vancouver Center
Sat 08:28:10 AM 50.8667 -116.0667 252° West 380 437 38,000  Level Vancouver Center
Sat 08:29:10 AM 50.8333 -116.2333 245° Southwest 400 460 38,000  Level Vancouver Center
Sat 08:30:10 AM 50.7833 -116.4000 257° West 400 460 38,000  Level Vancouver Center
Sat 08:31:11 AM 50.7500 -116.6333 253° West 390 449 38,000  Level Edmonton Center
Sat 08:32:11 AM 50.7167 -116.8000 254° West 400 460 38,000  Level Edmonton Center
Sat 08:33:11 AM 50.6833 -116.9833 251° West 400 460 38,000  Level Edmonton Center
Sat 08:34:11 AM 50.6500 -117.1333 255° West 400 460 38,000  Level Edmonton Center
Sat 08:35:10 AM 50.6333 -117.2333 253° West 390 449 38,000  Level Vancouver Center
Sat 08:36:10 AM 50.6000 -117.4000 245° Southwest 390 449 38,000  Level Vancouver Center
Sat 08:37:10 AM 50.5500 -117.5667 261° West 390 449 38,000  Level Vancouver Center
Sat 08:38:10 AM 50.5333 -117.7333 244° Southwest 400 460 38,000  Level Vancouver Center
Sat 08:39:11 AM 50.4667 -117.9500 253° West 390 449 38,000  Level Edmonton Center
Sat 08:40:11 AM 50.4333 -118.1167 251° West 390 449 38,000  Level Edmonton Center
Sat 08:41:11 AM 50.4000 -118.2667 261° West 390 449 38,000  Level Edmonton Center
Sat 08:42:11 AM 50.3833 -118.4333 245° Southwest 390 449 38,000  Level Edmonton Center
Sat 08:43:11 AM 50.3333 -118.6000 251° West 390 449 38,000  Level Edmonton Center
Sat 08:44:11 AM 50.3000 -118.7500 253° West 390 449 38,000  Level Edmonton Center
Sat 08:45:11 AM 50.2667 -118.9167 243° Southwest 390 449 38,000  Level Edmonton Center
Sat 08:46:11 AM 50.2167 -119.0667 251° West 390 449 38,000  Level Edmonton Center
Sat 08:47:11 AM 50.1833 -119.2167 254° West 380 437 38,000  Level Edmonton Center
Sat 08:48:11 AM 50.1500 -119.4000 251° West 390 449 38,000  Level Edmonton Center
Sat 08:49:11 AM 50.1167 -119.5500 253° West 390 449 38,000  Level Edmonton Center
Sat 08:50:10 AM 50.1000 -119.6333 247° West 390 449 38,000  Level Vancouver Center
Sat 08:51:10 AM 50.0500 -119.8167 261° West 390 449 38,000  Level Vancouver Center
Sat 08:52:10 AM 50.0333 -119.9833 243° Southwest 400 460 38,000  Level Vancouver Center
Sat 08:53:10 AM 49.9833 -120.1333 245° Southwest 400 460 38,000  Level Vancouver Center
Sat 08:54:10 AM 49.9333 -120.3000 251° West 400 460 38,000  Level Vancouver Center
Sat 08:55:10 AM 49.9000 -120.4500 253° West 400 460 38,000  Level Vancouver Center
Sat 08:56:10 AM 49.8667 -120.6167 251° West 390 449 38,000  Level Vancouver Center
Sat 08:57:10 AM 49.8333 -120.7667 245° Southwest 390 449 38,000 -450 Level Vancouver Center
Sat 08:58:10 AM 49.7833 -120.9333 251° West 400 460 37,100 -950 Descending Vancouver Center
Sat 08:59:10 AM 49.7500 -121.0833 253° West 380 437 36,100 -1,000 Descending Vancouver Center
Sat 09:00:10 AM 49.7167 -121.2500 246° West 370 426 35,100 -1,300 Descending Vancouver Center
Sat 09:01:10 AM 49.6833 -121.3667 245° Southwest 380 437 33,500 -2,050 Descending Vancouver Center
Sat 09:02:10 AM 49.6333 -121.5333 251° West 380 437 31,000 -2,350 Descending Vancouver Center
Sat 09:03:10 AM 49.6000 -121.6833 249° West 370 426 28,800 -2,118 Descending Vancouver Center
Sat 09:04:09 AM 49.5667 -121.8167 240° Southwest 350 403 26,800 -2,118 Descending Vancouver Center
Sat 09:05:09 AM 49.5167 -121.9500 259° West 330 380 24,600 -2,050 Descending Vancouver Center
Sat 09:06:09 AM 49.5000 -122.0833 237° Southwest 330 380 22,700 -2,000 Descending Vancouver Center
Sat 09:07:09 AM 49.4500 -122.2000 237° Southwest 330 380 20,600 -1,900 Descending Vancouver Center
Sat 09:08:09 AM 49.4000 -122.3167 233° Southwest 330 380 18,900 -1,650 Descending Vancouver Center
Sat 09:09:09 AM 49.3500 -122.4167 240° Southwest 330 380 17,300 -1,650 Descending Vancouver Center
Sat 09:10:09 AM 49.3000 -122.5500 243° Southwest 310 357 15,600 -1,600 Descending Vancouver Center
Sat 09:11:09 AM 49.2667 -122.6500 249° West 300 345 14,100 -1,800 Descending Vancouver Center
Sat 09:12:09 AM 49.2333 -122.7833 256° West 300 345 12,000 -1,650 Descending Vancouver Center
Sat 09:13:09 AM 49.2167 -122.8833 282° West 280 322 10,800 -1,000 Descending Vancouver Center
Sat 09:14:09 AM 49.2333 -123.0000 282° West 270 311 10,000 -1,050 Descending Vancouver Center
Sat 09:15:09 AM 49.2500 -123.1167 282° West 270 311 8,700 -1,350 Descending Vancouver Center
Sat 09:16:09 AM 49.2667 -123.2333 270° West 270 311 7,300 -1,400 Descending Vancouver Center
Sat 09:17:09 AM 49.2667 -123.3333 284° West 260 299 5,900 -1,100 Descending Vancouver Center
Sat 09:18:09 AM 49.2833 -123.4333 270° West 240 276 5,100 -950 Descending Vancouver Center
Sat 09:19:09 AM 49.2833 -123.5167 204° Southwest 220 253 4,000 -1,350 Descending Vancouver Center
Sat 09:20:09 AM 49.2333 -123.5500 121° Southeast 220 253 2,400 -1,000 Descending Vancouver Center
Sat 09:21:09 AM 49.2000 -123.4667 107° East 200 230 2,000 -200 Descending Vancouver Center
Sat 09:22:09 AM 49.1833 -123.3833 107° East 200 230 2,000  Level Vancouver Center

Login

Don't have an account? Register now (free) for customized features, flight alerts, and more!